createdAt,value
2019-06-15T00:02:30.740Z,18.90
2019-06-15T00:05:01.950Z,18.99
2019-06-15T00:07:35.576Z,19.13
2019-06-15T00:10:06.905Z,19.22
2019-06-15T00:12:38.159Z,19.33
2019-06-15T00:15:10.420Z,19.36
2019-06-15T00:17:41.723Z,19.35
2019-06-15T00:20:13.225Z,19.31
2019-06-15T00:22:44.473Z,19.37
2019-06-15T00:25:15.875Z,19.35
2019-06-15T00:27:47.126Z,19.27
2019-06-15T00:30:19.002Z,19.20
2019-06-15T00:32:50.275Z,19.18
2019-06-15T00:35:21.479Z,19.18
2019-06-15T00:37:52.678Z,19.13
2019-06-15T00:40:24.385Z,19.23
2019-06-15T00:42:55.633Z,19.12
2019-06-15T00:45:26.888Z,19.17
2019-06-15T00:47:58.143Z,19.08
2019-06-15T00:50:29.435Z,19.04
2019-06-15T00:53:00.711Z,19.09
2019-06-15T00:55:31.986Z,19.07
2019-06-15T00:58:03.357Z,19.03
2019-06-15T01:00:34.687Z,18.94
2019-06-15T01:03:05.978Z,18.75
2019-06-15T01:05:37.269Z,18.62
2019-06-15T01:08:08.495Z,18.80
2019-06-15T01:10:39.828Z,18.65
2019-06-15T01:13:11.098Z,18.74
2019-06-15T01:15:42.320Z,18.71
2019-06-15T01:18:13.745Z,18.59
2019-06-15T01:20:45.015Z,18.44
2019-06-15T01:23:16.200Z,18.39
2019-06-15T01:25:47.470Z,18.47
2019-06-15T01:28:18.728Z,18.42
2019-06-15T01:30:50.121Z,18.36
2019-06-15T01:33:21.466Z,18.41
2019-06-15T01:35:52.740Z,18.48
2019-06-15T01:38:23.943Z,18.41
2019-06-15T01:40:55.187Z,18.32
2019-06-15T01:43:26.442Z,18.38
2019-06-15T01:45:57.786Z,18.32
2019-06-15T01:48:29.128Z,18.40
2019-06-15T01:51:00.376Z,18.43
2019-06-15T01:53:31.638Z,18.42
2019-06-15T01:56:02.907Z,18.26
2019-06-15T01:58:34.149Z,18.29
2019-06-15T02:01:05.773Z,18.29
2019-06-15T02:03:37.198Z,18.35
2019-06-15T02:06:08.414Z,18.36
2019-06-15T02:08:39.602Z,18.57
2019-06-15T02:11:10.914Z,18.65
2019-06-15T02:13:42.164Z,18.75
2019-06-15T02:16:13.309Z,18.74
2019-06-15T02:18:44.632Z,18.66
2019-06-15T02:21:15.869Z,18.64
2019-06-15T02:23:51.932Z,18.56
2019-06-15T02:26:23.160Z,18.46
2019-06-15T02:28:54.464Z,18.30
2019-06-15T02:31:25.751Z,18.17
2019-06-15T02:33:56.994Z,18.01
2019-06-15T02:36:28.362Z,17.96
2019-06-15T02:38:59.654Z,17.96
2019-06-15T02:41:31.013Z,17.93
2019-06-15T02:44:02.434Z,17.84
2019-06-15T02:46:33.715Z,17.94
2019-06-15T02:49:04.972Z,17.88
2019-06-15T02:51:36.325Z,17.86
2019-06-15T02:54:07.654Z,17.74
2019-06-15T02:56:38.886Z,17.70
2019-06-15T02:59:10.167Z,17.68
2019-06-15T03:01:41.380Z,17.71
2019-06-15T03:04:12.673Z,17.66
2019-06-15T03:06:44.423Z,17.60
2019-06-15T03:09:16.091Z,17.69
2019-06-15T03:11:47.485Z,17.61
2019-06-15T03:14:18.785Z,17.56
2019-06-15T03:16:50.073Z,17.55
2019-06-15T03:19:21.286Z,17.46
2019-06-15T03:21:52.487Z,17.44
2019-06-15T03:24:23.897Z,17.50
2019-06-15T03:26:55.223Z,17.46
2019-06-15T03:29:26.463Z,17.49
2019-06-15T03:31:57.727Z,17.51
2019-06-15T03:34:29.018Z,17.49
2019-06-15T03:37:00.262Z,17.58
2019-06-15T03:39:31.404Z,17.72
2019-06-15T03:42:02.680Z,17.83
2019-06-15T03:44:33.963Z,17.95
2019-06-15T03:47:05.254Z,18.11
2019-06-15T03:49:36.546Z,18.13
2019-06-15T03:52:07.796Z,18.22
2019-06-15T03:54:39.119Z,18.28
2019-06-15T03:57:10.307Z,18.34
2019-06-15T03:59:41.547Z,18.28
2019-06-15T04:02:12.853Z,18.22
2019-06-15T04:04:44.112Z,18.22
2019-06-15T04:07:15.401Z,18.11
2019-06-15T04:09:47.058Z,18.09
2019-06-15T04:12:18.437Z,18.18
2019-06-15T04:14:56.879Z,18.28
2019-06-15T04:17:28.226Z,18.42
2019-06-15T04:19:59.489Z,18.57
2019-06-15T04:22:30.746Z,18.58
2019-06-15T04:25:02.488Z,18.52
2019-06-15T04:27:33.920Z,18.52
2019-06-15T04:30:05.385Z,18.41
2019-06-15T04:32:36.688Z,18.24
2019-06-15T04:35:09.943Z,18.08
2019-06-15T04:37:41.283Z,17.86
2019-06-15T04:40:12.819Z,17.73
2019-06-15T04:42:44.105Z,17.74
2019-06-15T04:45:15.694Z,17.78
2019-06-15T04:47:46.985Z,17.79
2019-06-15T04:50:18.384Z,17.75
2019-06-15T04:52:49.625Z,17.75
2019-06-15T04:55:20.951Z,17.74
2019-06-15T04:57:52.250Z,17.66
2019-06-15T05:00:23.719Z,17.68
2019-06-15T05:02:55.065Z,17.76
2019-06-15T05:05:26.360Z,17.65
2019-06-15T05:07:57.654Z,17.58
2019-06-15T05:10:28.925Z,17.56
2019-06-15T05:13:00.198Z,17.60
2019-06-15T05:15:31.491Z,17.64
2019-06-15T05:18:02.908Z,17.72
2019-06-15T05:20:34.158Z,17.70
2019-06-15T05:23:05.457Z,17.82
2019-06-15T05:25:37.347Z,17.81
2019-06-15T05:28:08.592Z,17.80
2019-06-15T05:30:39.809Z,17.91
2019-06-15T05:33:11.118Z,17.95
2019-06-15T05:35:42.370Z,18.12
2019-06-15T05:38:14.104Z,18.24
2019-06-15T05:40:45.304Z,18.46
2019-06-15T05:43:16.657Z,18.57
2019-06-15T05:45:47.959Z,18.75
2019-06-15T05:48:19.307Z,18.67
2019-06-15T05:50:50.634Z,18.73
2019-06-15T05:53:21.873Z,18.80
2019-06-15T05:55:53.210Z,18.71
2019-06-15T05:58:24.367Z,18.68
2019-06-15T06:00:56.615Z,18.62
2019-06-15T06:03:27.891Z,18.54
2019-06-15T06:05:59.119Z,18.40
2019-06-15T06:08:30.395Z,18.36
2019-06-15T06:11:01.715Z,18.37
2019-06-15T06:13:33.035Z,18.26
2019-06-15T06:16:04.389Z,18.08
2019-06-15T06:18:36.090Z,18.01
2019-06-15T06:21:07.428Z,18.06
2019-06-15T06:23:38.776Z,18.05
2019-06-15T06:26:10.022Z,18.03
2019-06-15T06:28:56.301Z,18.00
2019-06-15T06:31:21.049Z,17.96
2019-06-15T06:33:52.304Z,17.83
2019-06-15T06:36:23.550Z,17.76
2019-06-15T06:38:54.795Z,17.75
2019-06-15T06:41:26.016Z,17.77
2019-06-15T06:43:57.493Z,17.72
2019-06-15T06:46:28.779Z,17.68
2019-06-15T06:49:00.092Z,17.66
2019-06-15T06:51:31.346Z,17.68
2019-06-15T06:54:02.626Z,17.66
2019-06-15T06:56:35.958Z,17.69
2019-06-15T06:59:07.306Z,17.67
2019-06-15T07:01:38.603Z,17.77
2019-06-15T07:04:11.554Z,17.77
2019-06-15T07:06:42.852Z,17.83
2019-06-15T07:09:14.188Z,17.90
2019-06-15T07:11:49.263Z,17.97
2019-06-15T07:14:23.339Z,18.19
2019-06-15T07:16:54.929Z,18.07
2019-06-15T07:19:27.033Z,18.16
2019-06-15T07:21:58.504Z,18.17
2019-06-15T07:24:30.376Z,18.20
2019-06-15T07:27:01.621Z,18.10
2019-06-15T07:29:32.947Z,18.04
2019-06-15T07:32:04.173Z,18.11
2019-06-15T07:34:35.431Z,18.17
2019-06-15T07:37:06.644Z,18.26
2019-06-15T07:39:37.862Z,18.45
2019-06-15T07:42:09.176Z,18.76
2019-06-15T07:44:40.475Z,18.94
2019-06-15T07:47:11.685Z,19.30
2019-06-15T07:49:43.060Z,19.82
2019-06-15T07:52:14.292Z,20.16
2019-06-15T07:54:45.698Z,20.32
2019-06-15T07:57:16.974Z,20.89
2019-06-15T07:59:48.279Z,21.20
2019-06-15T08:02:19.604Z,21.03
2019-06-15T08:04:50.852Z,22.04
2019-06-15T08:07:22.405Z,22.62
2019-06-15T08:09:53.740Z,23.11
2019-06-15T08:12:25.050Z,23.36
2019-06-15T08:14:56.405Z,24.03
2019-06-15T08:17:27.701Z,24.43
2019-06-15T08:20:35.105Z,24.24
2019-06-15T08:23:06.359Z,24.53
2019-06-15T08:25:37.652Z,25.57
2019-06-15T08:28:08.933Z,25.79
2019-06-15T08:30:44.810Z,25.63
2019-06-15T08:33:16.050Z,25.06
2019-06-15T08:35:47.445Z,24.45
2019-06-15T08:38:18.939Z,23.45
2019-06-15T08:40:50.262Z,23.05
2019-06-15T08:43:21.393Z,22.54
2019-06-15T08:45:52.715Z,21.66
2019-06-15T08:48:31.063Z,21.17
2019-06-15T08:51:02.288Z,20.80
2019-06-15T08:53:36.285Z,20.43
2019-06-15T08:56:07.578Z,20.45
2019-06-15T08:59:02.506Z,20.39
2019-06-15T09:01:33.754Z,20.74
2019-06-15T09:04:05.236Z,20.96
2019-06-15T09:06:55.873Z,20.81
2019-06-15T09:09:29.281Z,20.34
2019-06-15T09:12:02.832Z,19.98
2019-06-15T09:14:50.125Z,19.69
2019-06-15T09:17:21.499Z,19.57
2019-06-15T09:19:53.018Z,19.39
2019-06-15T09:22:24.441Z,19.35
2019-06-15T09:24:55.751Z,19.33
2019-06-15T09:27:26.936Z,19.40
2019-06-15T09:29:58.203Z,19.39
2019-06-15T09:32:29.492Z,19.31
2019-06-15T09:35:11.698Z,19.26
2019-06-15T09:37:43.740Z,19.20
2019-06-15T09:40:20.815Z,19.17
2019-06-15T09:42:52.505Z,19.17
2019-06-15T09:45:23.875Z,19.19
2019-06-15T09:47:55.128Z,19.30
2019-06-15T09:50:28.988Z,19.34
2019-06-15T09:53:00.287Z,19.22
2019-06-15T09:56:42.803Z,18.95
2019-06-15T09:59:25.875Z,18.92
2019-06-15T10:01:51.501Z,18.89
2019-06-15T10:04:22.938Z,18.92
2019-06-15T10:07:15.628Z,19.23
2019-06-15T10:09:53.707Z,19.66
2019-06-15T10:12:42.539Z,20.15
2019-06-15T10:15:18.069Z,20.21
2019-06-15T10:17:53.152Z,20.37
2019-06-15T10:20:44.391Z,21.12
2019-06-15T10:23:23.548Z,22.06
2019-06-15T10:26:16.759Z,22.55
2019-06-15T10:29:00.792Z,22.11
2019-06-15T10:31:39.226Z,22.15
2019-06-15T10:34:12.396Z,21.65
2019-06-15T10:36:54.199Z,21.56
2019-06-15T10:39:28.989Z,21.63
2019-06-15T10:42:16.110Z,22.13
2019-06-15T10:44:50.350Z,22.09
2019-06-15T10:47:22.009Z,22.00
2019-06-15T10:49:54.985Z,21.85
2019-06-15T10:52:27.460Z,21.78
2019-06-15T10:55:00.473Z,22.42
2019-06-15T10:57:32.160Z,23.20
2019-06-15T11:00:03.759Z,23.25
2019-06-15T11:02:35.109Z,23.11
2019-06-15T11:05:16.388Z,23.08
2019-06-15T11:07:52.754Z,23.37
2019-06-15T11:10:50.701Z,22.83
2019-06-15T11:13:29.380Z,22.34
2019-06-15T11:16:01.197Z,22.93
2019-06-15T11:18:33.179Z,22.61
2019-06-15T11:21:04.613Z,23.07
2019-06-15T11:23:36.010Z,23.09
2019-06-15T11:26:07.670Z,22.65
2019-06-15T11:28:39.131Z,23.03
2019-06-15T11:31:10.367Z,23.13
2019-06-15T11:33:41.794Z,22.76
2019-06-15T11:36:13.084Z,22.80
2019-06-15T11:38:44.358Z,22.98
2019-06-15T11:41:15.646Z,22.90
2019-06-15T11:43:46.936Z,22.38
2019-06-15T11:46:18.226Z,22.44
2019-06-15T11:48:49.559Z,22.53
2019-06-15T11:51:20.850Z,22.40
2019-06-15T11:53:52.127Z,22.41
2019-06-15T11:56:23.447Z,22.65
2019-06-15T11:58:54.689Z,22.40
2019-06-15T12:01:25.951Z,22.49
2019-06-15T12:03:57.207Z,22.42
2019-06-15T12:06:28.637Z,22.20
2019-06-15T12:08:59.899Z,21.99
2019-06-15T12:11:31.195Z,22.08
2019-06-15T12:14:02.482Z,22.07
2019-06-15T12:16:33.741Z,22.04
2019-06-15T12:19:14.824Z,21.91
2019-06-15T12:21:46.100Z,21.87
2019-06-15T12:24:17.360Z,21.84
2019-06-15T12:26:48.679Z,22.02
2019-06-15T12:29:21.620Z,22.61
2019-06-15T12:31:52.977Z,22.84
2019-06-15T12:34:24.250Z,22.75
2019-06-15T12:36:56.844Z,22.58
2019-06-15T12:39:28.209Z,23.17
2019-06-15T12:42:02.666Z,24.13
2019-06-15T12:44:37.499Z,24.17
2019-06-15T12:47:08.758Z,23.77
2019-06-15T12:49:40.027Z,23.14
2019-06-15T12:52:11.376Z,23.10
2019-06-15T12:54:42.633Z,23.10
2019-06-15T12:57:16.644Z,23.23
2019-06-15T12:59:48.120Z,23.68
2019-06-15T13:02:19.639Z,24.10
2019-06-15T13:04:50.884Z,24.26
2019-06-15T13:07:22.235Z,23.98
2019-06-15T13:09:53.452Z,24.06
2019-06-15T13:12:24.772Z,23.70
2019-06-15T13:14:56.056Z,23.82
2019-06-15T13:17:27.336Z,23.53
2019-06-15T13:19:58.615Z,23.59
2019-06-15T13:22:29.926Z,23.55
2019-06-15T13:25:01.210Z,23.42
2019-06-15T13:27:32.441Z,23.67
2019-06-15T13:30:03.590Z,23.91
2019-06-15T13:32:34.904Z,24.06
2019-06-15T13:35:06.602Z,23.75
2019-06-15T13:37:42.098Z,23.94
2019-06-15T13:40:10.797Z,23.78
2019-06-15T13:42:42.561Z,23.88
2019-06-15T13:45:14.611Z,23.94
2019-06-15T13:47:45.992Z,23.71
2019-06-15T13:50:20.030Z,23.74
2019-06-15T13:52:56.613Z,23.50
2019-06-15T13:55:27.946Z,23.56
2019-06-15T13:57:59.214Z,23.59
2019-06-15T14:00:30.756Z,24.00
2019-06-15T14:03:02.134Z,24.52
2019-06-15T14:05:33.467Z,24.53
2019-06-15T14:08:05.344Z,24.04
2019-06-15T14:10:37.874Z,24.60
2019-06-15T14:13:21.377Z,24.61
2019-06-15T14:15:48.452Z,24.43
2019-06-15T14:18:28.647Z,24.25
2019-06-15T14:21:01.076Z,24.48
2019-06-15T14:23:32.377Z,25.13
2019-06-15T14:26:03.644Z,25.46
2019-06-15T14:28:34.899Z,25.52
2019-06-15T14:31:06.267Z,25.26
2019-06-15T14:33:37.530Z,25.08
2019-06-15T14:36:08.965Z,25.25
2019-06-15T14:38:40.723Z,25.14
2019-06-15T14:41:12.131Z,25.08
2019-06-15T14:43:43.378Z,25.81
2019-06-15T14:46:15.266Z,26.11
2019-06-15T14:48:49.046Z,25.96
2019-06-15T14:51:28.261Z,26.35
2019-06-15T14:54:01.847Z,26.19
2019-06-15T14:56:33.187Z,25.84
2019-06-15T14:59:05.664Z,24.85
2019-06-15T15:01:36.957Z,24.51
2019-06-15T15:04:08.127Z,24.47
2019-06-15T15:06:39.388Z,24.56
2019-06-15T15:09:10.534Z,24.79
2019-06-15T15:11:41.823Z,24.86
2019-06-15T15:14:20.335Z,24.37
2019-06-15T15:16:51.332Z,23.80
2019-06-15T15:19:49.556Z,23.22
2019-06-15T15:22:21.917Z,23.09
2019-06-15T15:24:55.959Z,24.91
2019-06-15T15:27:27.257Z,25.98
2019-06-15T15:29:58.694Z,26.79
2019-06-15T15:32:31.624Z,27.87
2019-06-15T15:35:02.919Z,28.12
2019-06-15T15:37:40.644Z,28.56
2019-06-15T15:40:16.664Z,27.76
2019-06-15T15:42:52.200Z,26.57
2019-06-15T15:45:26.957Z,26.91
2019-06-15T15:48:08.777Z,27.13
2019-06-15T15:50:40.162Z,26.61
2019-06-15T15:53:14.388Z,25.73
2019-06-15T15:55:58.082Z,25.13
2019-06-15T15:58:46.891Z,26.23
2019-06-15T16:01:17.342Z,26.03
2019-06-15T16:03:49.176Z,26.89
2019-06-15T16:06:21.962Z,27.02
2019-06-15T16:09:11.254Z,27.58
2019-06-15T16:11:46.309Z,27.87
2019-06-15T16:14:37.760Z,27.73
2019-06-15T16:17:09.112Z,27.93
2019-06-15T16:19:40.572Z,27.65
2019-06-15T16:23:28.338Z,27.98
2019-06-15T16:26:00.028Z,28.40
2019-06-15T16:28:36.647Z,28.62
2019-06-15T16:31:13.149Z,28.26
2019-06-15T16:33:46.312Z,27.78
2019-06-15T16:36:16.928Z,27.62
2019-06-15T16:38:52.434Z,27.35
2019-06-15T16:41:25.787Z,27.32
2019-06-15T16:43:56.926Z,26.67
2019-06-15T16:46:36.726Z,26.01
2019-06-15T16:49:26.905Z,25.76
2019-06-15T16:52:02.973Z,25.76
2019-06-15T16:54:40.356Z,25.12
2019-06-15T16:57:17.257Z,24.78
2019-06-15T16:59:56.772Z,24.61
2019-06-15T17:02:29.593Z,24.27
2019-06-15T17:05:00.960Z,23.75
2019-06-15T17:20:19.455Z,22.89
2019-06-15T17:23:16.362Z,22.69
2019-06-15T17:25:59.965Z,22.71
2019-06-15T17:28:48.671Z,22.64
2019-06-15T17:31:39.880Z,22.83
2019-06-15T17:34:21.545Z,22.89
2019-06-15T17:39:56.376Z,22.76
2019-06-15T17:42:37.789Z,22.59
2019-06-15T17:45:20.030Z,22.59
2019-06-15T17:47:56.877Z,22.51
2019-06-15T17:50:38.664Z,22.45
2019-06-15T17:53:13.039Z,22.37
2019-06-15T17:56:26.833Z,22.45
2019-06-15T17:59:02.889Z,22.53
2019-06-15T18:02:02.862Z,22.64
2019-06-15T18:04:43.639Z,22.77
2019-06-15T18:10:56.392Z,22.73
2019-06-15T18:17:28.429Z,23.07
2019-06-15T18:20:03.342Z,22.92
2019-06-15T18:22:38.045Z,22.96
2019-06-15T18:25:21.840Z,22.74
2019-06-15T18:28:08.316Z,22.55
2019-06-15T18:30:40.005Z,22.44
2019-06-15T18:33:16.295Z,22.16
2019-06-15T18:35:47.959Z,22.05
2019-06-15T18:38:20.147Z,21.94
2019-06-15T18:40:51.348Z,21.91
2019-06-15T18:43:22.615Z,21.86
2019-06-15T18:45:56.771Z,21.78
2019-06-15T18:48:28.144Z,21.59
2019-06-15T18:50:59.495Z,21.54
2019-06-15T18:53:31.225Z,21.36
2019-06-15T18:56:02.490Z,21.24
2019-06-15T18:58:33.820Z,21.12
2019-06-15T19:01:06.947Z,21.02
2019-06-15T19:03:37.995Z,21.03
2019-06-15T19:06:09.324Z,20.97
2019-06-15T19:09:59.493Z,20.80
2019-06-15T19:12:38.525Z,20.72
2019-06-15T19:15:12.993Z,20.54
2019-06-15T19:17:46.328Z,20.35
2019-06-15T19:20:26.311Z,20.27
2019-06-15T19:22:59.431Z,20.06
2019-06-15T19:25:41.199Z,19.95
2019-06-15T19:28:22.738Z,19.76
2019-06-15T19:31:16.122Z,19.66
2019-06-15T19:34:16.237Z,19.57
2019-06-15T19:36:46.825Z,19.49
2019-06-15T19:39:46.156Z,19.44
2019-06-15T19:42:30.733Z,19.41
2019-06-15T19:45:07.724Z,19.32
2019-06-15T19:47:46.840Z,19.31
2019-06-15T19:50:36.217Z,19.25
2019-06-15T19:53:14.165Z,19.15
2019-06-15T19:55:48.232Z,19.01
2019-06-15T19:58:19.544Z,18.81
2019-06-15T20:00:50.870Z,18.74
2019-06-15T20:03:30.155Z,18.61
2019-06-15T20:06:06.196Z,18.50
2019-06-15T20:08:36.911Z,18.45
2019-06-15T20:11:08.245Z,18.33
2019-06-15T20:14:36.843Z,18.27
2019-06-15T20:17:08.239Z,18.12
2019-06-15T20:19:40.477Z,18.04
2019-06-15T20:22:11.722Z,18.11
2019-06-15T20:24:47.389Z,18.21
2019-06-15T20:27:18.786Z,18.42
2019-06-15T20:29:51.115Z,18.49
2019-06-15T20:32:22.516Z,18.42
2019-06-15T20:34:53.855Z,18.41
2019-06-15T20:37:26.300Z,18.38
2019-06-15T20:39:57.599Z,18.23
2019-06-15T20:42:28.833Z,18.12
2019-06-15T20:45:02.427Z,17.99
2019-06-15T20:47:52.759Z,17.85
2019-06-15T20:50:28.125Z,17.72
2019-06-15T20:52:56.959Z,17.56
2019-06-15T20:55:28.247Z,17.47
2019-06-15T20:57:59.531Z,17.57
2019-06-15T21:00:30.833Z,17.52
2019-06-15T21:03:01.972Z,17.50
2019-06-15T21:05:38.030Z,17.49
2019-06-15T21:08:06.869Z,17.52
2019-06-15T21:10:49.195Z,17.57
2019-06-15T21:13:26.210Z,17.49
2019-06-15T21:15:56.991Z,17.54
2019-06-15T21:18:28.411Z,17.56
2019-06-15T21:20:59.714Z,17.48
2019-06-15T21:23:30.931Z,17.42
2019-06-15T21:26:02.299Z,17.55
2019-06-15T21:28:33.600Z,17.47
2019-06-15T21:31:04.910Z,17.41
2019-06-15T21:33:36.267Z,17.45
2019-06-15T21:36:07.798Z,17.37
2019-06-15T21:38:39.078Z,17.33
2019-06-15T21:41:10.461Z,17.22
2019-06-15T21:43:41.799Z,17.10
2019-06-15T21:46:32.770Z,16.97
2019-06-15T21:49:07.047Z,16.91
2019-06-15T21:51:42.588Z,16.88
2019-06-15T21:54:15.865Z,16.87
2019-06-15T21:56:47.120Z,16.91
2019-06-15T21:59:36.968Z,17.02
2019-06-15T22:02:42.669Z,17.05
2019-06-15T22:05:17.579Z,17.03
2019-06-15T22:07:56.627Z,16.97
2019-06-15T22:10:29.828Z,16.95
2019-06-15T22:13:03.522Z,16.88
2019-06-15T22:15:39.949Z,16.71
2019-06-15T22:18:11.541Z,16.53
2019-06-15T22:20:59.586Z,16.32
2019-06-15T22:23:36.438Z,16.16
2019-06-15T22:26:08.693Z,15.96
2019-06-15T22:28:40.063Z,15.88
2019-06-15T22:31:12.749Z,15.82
2019-06-15T22:33:47.070Z,15.76
2019-06-15T22:36:24.690Z,15.63
2019-06-15T22:38:50.374Z,15.57
2019-06-15T22:41:21.617Z,15.55
2019-06-15T22:43:52.952Z,15.55
2019-06-15T22:46:26.247Z,15.48
2019-06-15T22:48:57.188Z,15.40
2019-06-15T22:51:28.423Z,15.34
2019-06-15T22:53:59.661Z,15.23
2019-06-15T22:56:30.952Z,15.13
2019-06-15T22:59:02.249Z,15.09
2019-06-15T23:01:33.533Z,15.08
2019-06-15T23:04:06.629Z,15.05
2019-06-15T23:06:41.418Z,15.06
2019-06-15T23:09:10.615Z,15.12
2019-06-15T23:11:41.860Z,15.19
2019-06-15T23:14:13.068Z,15.27
2019-06-15T23:16:47.256Z,15.39
2019-06-15T23:19:17.519Z,15.52
2019-06-15T23:21:48.674Z,15.57
2019-06-15T23:24:19.957Z,15.63
2019-06-15T23:26:51.245Z,15.69
2019-06-15T23:29:22.617Z,15.78
2019-06-15T23:31:57.014Z,15.87
2019-06-15T23:34:27.233Z,15.93
2019-06-15T23:37:00.936Z,16.01
2019-06-15T23:39:32.354Z,16.13
2019-06-15T23:42:06.006Z,16.27
2019-06-15T23:44:36.649Z,16.35
2019-06-15T23:47:07.993Z,16.37
2019-06-15T23:49:39.238Z,16.41
2019-06-15T23:52:10.495Z,16.40
2019-06-15T23:54:41.776Z,16.40
2019-06-15T23:57:12.968Z,16.41
2019-06-15T23:59:46.447Z,16.41
